sensor_id;sensor_type;location;lat;lon;timestamp;pressure;altitude;pressure_sealevel;temperature;humidity
43436;BME280;36399;51.444;-2.018;2023-04-28T00:02:00;100138.06;;;11.00;100.00
43436;BME280;36399;51.444;-2.018;2023-04-28T00:04:27;100138.94;;;10.99;100.00
43436;BME280;36399;51.444;-2.018;2023-04-28T00:06:53;100136.34;;;11.08;100.00
43436;BME280;36399;51.444;-2.018;2023-04-28T00:09:19;100141.56;;;11.02;100.00
43436;BME280;36399;51.444;-2.018;2023-04-28T00:11:45;100138.97;;;11.06;100.00
43436;BME280;36399;51.444;-2.018;2023-04-28T00:14:12;100137.25;;;11.12;100.00
43436;BME280;36399;51.444;-2.018;2023-04-28T00:16:38;100134.59;;;11.07;100.00
43436;BME280;36399;51.444;-2.018;2023-04-28T00:19:04;100139.84;;;11.07;100.00
43436;BME280;36399;51.444;-2.018;2023-04-28T00:21:30;100138.09;;;11.09;100.00
43436;BME280;36399;51.444;-2.018;2023-04-28T00:23:56;100140.72;;;11.09;100.00
43436;BME280;36399;51.444;-2.018;2023-04-28T00:26:22;100145.13;;;11.13;100.00
43436;BME280;36399;51.444;-2.018;2023-04-28T00:28:48;100142.50;;;11.12;100.00
43436;BME280;36399;51.444;-2.018;2023-04-28T00:31:14;100142.50;;;11.13;100.00
43436;BME280;36399;51.444;-2.018;2023-04-28T00:33:41;100145.13;;;11.13;100.00
43436;BME280;36399;51.444;-2.018;2023-04-28T00:36:08;100139.03;;;11.17;100.00
43436;BME280;36399;51.444;-2.018;2023-04-28T00:38:35;100139.03;;;11.17;100.00
43436;BME280;36399;51.444;-2.018;2023-04-28T00:41:01;100146.03;;;11.17;100.00
43436;BME280;36399;51.444;-2.018;2023-04-28T00:43:27;100138.16;;;11.18;100.00
43436;BME280;36399;51.444;-2.018;2023-04-28T00:45:53;100139.88;;;11.16;100.00
43436;BME280;36399;51.444;-2.018;2023-04-28T00:48:19;100143.41;;;11.17;100.00
43436;BME280;36399;51.444;-2.018;2023-04-28T00:50:47;100139.03;;;11.20;100.00
43436;BME280;36399;51.444;-2.018;2023-04-28T00:53:13;100139.03;;;11.20;100.00
43436;BME280;36399;51.444;-2.018;2023-04-28T00:55:39;100138.16;;;11.18;100.00
43436;BME280;36399;51.444;-2.018;2023-04-28T00:58:05;100136.44;;;11.29;100.00
43436;BME280;36399;51.444;-2.018;2023-04-28T01:00:32;100142.56;;;11.30;100.00
43436;BME280;36399;51.444;-2.018;2023-04-28T01:02:58;100128.53;;;11.22;100.00
43436;BME280;36399;51.444;-2.018;2023-04-28T01:05:24;100134.66;;;11.22;100.00
43436;BME280;36399;51.444;-2.018;2023-04-28T01:07:51;100139.91;;;11.22;100.00
43436;BME280;36399;51.444;-2.018;2023-04-28T01:10:17;100137.31;;;11.25;100.00
43436;BME280;36399;51.444;-2.018;2023-04-28T01:12:43;100139.94;;;11.28;100.00
43436;BME280;36399;51.444;-2.018;2023-04-28T01:15:14;100146.97;;;11.29;100.00
43436;BME280;36399;51.444;-2.018;2023-04-28T01:17:40;100143.44;;;11.24;100.00
43436;BME280;36399;51.444;-2.018;2023-04-28T01:20:07;100142.56;;;11.30;100.00
43436;BME280;36399;51.444;-2.018;2023-04-28T01:22:33;100148.72;;;11.32;100.00
43436;BME280;36399;51.444;-2.018;2023-04-28T01:24:59;100141.69;;;11.26;100.00
43436;BME280;36399;51.444;-2.018;2023-04-28T01:27:25;100156.59;;;11.32;100.00
43436;BME280;36399;51.444;-2.018;2023-04-28T01:29:51;100152.22;;;11.29;100.00
43436;BME280;36399;51.444;-2.018;2023-04-28T01:32:17;100149.59;;;11.32;100.00
43436;BME280;36399;51.444;-2.018;2023-04-28T01:34:43;100153.97;;;11.27;100.00
43436;BME280;36399;51.444;-2.018;2023-04-28T01:37:09;100153.09;;;11.33;100.00
43436;BME280;36399;51.444;-2.018;2023-04-28T01:39:35;100153.97;;;11.29;100.00
43436;BME280;36399;51.444;-2.018;2023-04-28T01:42:01;100153.06;;;11.27;100.00
43436;BME280;36399;51.444;-2.018;2023-04-28T01:44:27;100153.09;;;11.28;100.00
43436;BME280;36399;51.444;-2.018;2023-04-28T01:46:53;100159.22;;;11.27;100.00
43436;BME280;36399;51.444;-2.018;2023-04-28T01:49:19;100162.75;;;11.32;100.00
43436;BME280;36399;51.444;-2.018;2023-04-28T01:51:44;100159.22;;;11.30;100.00
43436;BME280;36399;51.444;-2.018;2023-04-28T01:54:10;100157.47;;;11.31;100.00
43436;BME280;36399;51.444;-2.018;2023-04-28T01:56:36;100161.88;;;11.33;100.00
43436;BME280;36399;51.444;-2.018;2023-04-28T01:59:02;100164.47;;;11.27;100.00
43436;BME280;36399;51.444;-2.018;2023-04-28T02:01:28;100165.34;;;11.26;100.00
43436;BME280;36399;51.444;-2.018;2023-04-28T02:03:54;100163.63;;;11.34;100.00
43436;BME280;36399;51.444;-2.018;2023-04-28T02:06:20;100158.34;;;11.27;100.00
43436;BME280;36399;51.444;-2.018;2023-04-28T02:08:46;100160.06;;;11.25;100.00
43436;BME280;36399;51.444;-2.018;2023-04-28T02:11:12;100167.09;;;11.30;100.00
43436;BME280;36399;51.444;-2.018;2023-04-28T02:13:38;100168.84;;;11.27;100.00
43436;BME280;36399;51.444;-2.018;2023-04-28T02:16:04;100173.22;;;11.23;100.00
43436;BME280;36399;51.444;-2.018;2023-04-28T02:18:30;100171.44;;;11.22;100.00
43436;BME280;36399;51.444;-2.018;2023-04-28T02:20:56;100166.19;;;11.22;100.00
43436;BME280;36399;51.444;-2.018;2023-04-28T02:23:22;100181.94;;;11.21;100.00
43436;BME280;36399;51.444;-2.018;2023-04-28T02:25:48;100180.22;;;11.27;100.00
43436;BME280;36399;51.444;-2.018;2023-04-28T02:28:14;100178.44;;;11.20;100.00
43436;BME280;36399;51.444;-2.018;2023-04-28T02:30:40;100175.81;;;11.20;100.00
43436;BME280;36399;51.444;-2.018;2023-04-28T02:33:06;100176.66;;;11.16;100.00
43436;BME280;36399;51.444;-2.018;2023-04-28T02:35:32;100181.94;;;11.16;100.00
43436;BME280;36399;51.444;-2.018;2023-04-28T02:37:58;100173.16;;;11.14;100.00
43436;BME280;36399;51.444;-2.018;2023-04-28T02:40:23;100180.19;;;11.21;100.00
43436;BME280;36399;51.444;-2.018;2023-04-28T02:42:49;100181.94;;;11.16;100.00
43436;BME280;36399;51.444;-2.018;2023-04-28T02:45:15;100174.91;;;11.12;100.00
43436;BME280;36399;51.444;-2.018;2023-04-28T02:47:41;100180.19;;;11.21;100.00
43436;BME280;36399;51.444;-2.018;2023-04-28T02:50:08;100178.41;;;11.11;100.00
43436;BME280;36399;51.444;-2.018;2023-04-28T02:52:34;100176.66;;;11.12;100.00
43436;BME280;36399;51.444;-2.018;2023-04-28T02:55:00;100180.16;;;11.12;100.00
43436;BME280;36399;51.444;-2.018;2023-04-28T02:57:28;100184.50;;;11.09;100.00
43436;BME280;36399;51.444;-2.018;2023-04-28T02:59:54;100186.28;;;11.10;100.00
43436;BME280;36399;51.444;-2.018;2023-04-28T03:02:20;100181.88;;;11.05;100.00
43436;BME280;36399;51.444;-2.018;2023-04-28T03:04:47;100185.38;;;11.06;100.00
43436;BME280;36399;51.444;-2.018;2023-04-28T03:07:13;100186.25;;;11.05;100.00
43436;BME280;36399;51.444;-2.018;2023-04-28T03:09:39;100186.22;;;11.03;100.00
43436;BME280;36399;51.444;-2.018;2023-04-28T03:12:05;100185.38;;;11.06;100.00
43436;BME280;36399;51.444;-2.018;2023-04-28T03:14:31;100188.81;;;10.99;100.00
43436;BME280;36399;51.444;-2.018;2023-04-28T03:16:57;100174.81;;;10.97;100.00
43436;BME280;36399;51.444;-2.018;2023-04-28T03:19:23;100167.78;;;10.93;100.00
43436;BME280;36399;51.444;-2.018;2023-04-28T03:21:49;100184.47;;;11.01;100.00
43436;BME280;36399;51.444;-2.018;2023-04-28T03:24:15;100187.00;;;10.92;100.00
43436;BME280;36399;51.444;-2.018;2023-04-28T03:26:41;100201.94;;;10.94;100.00
43436;BME280;36399;51.444;-2.018;2023-04-28T03:29:07;100204.59;;;10.99;100.00
43436;BME280;36399;51.444;-2.018;2023-04-28T03:31:33;100190.56;;;10.97;100.00
43436;BME280;36399;51.444;-2.018;2023-04-28T03:33:58;100196.69;;;10.96;100.00
43436;BME280;36399;51.444;-2.018;2023-04-28T03:36:24;100194.97;;;10.99;100.00
43436;BME280;36399;51.444;-2.018;2023-04-28T03:38:52;100195.75;;;10.91;100.00
43436;BME280;36399;51.444;-2.018;2023-04-28T03:41:17;100212.38;;;10.88;100.00
43436;BME280;36399;51.444;-2.018;2023-04-28T03:43:43;100207.19;;;10.96;100.00
43436;BME280;36399;51.444;-2.018;2023-04-28T03:46:09;100208.88;;;10.92;100.00
43436;BME280;36399;51.444;-2.018;2023-04-28T03:48:35;100206.25;;;10.91;100.00
43436;BME280;36399;51.444;-2.018;2023-04-28T03:51:01;100211.56;;;10.97;100.00
43436;BME280;36399;51.444;-2.018;2023-04-28T03:53:28;100207.97;;;10.87;100.00
43436;BME280;36399;51.444;-2.018;2023-04-28T03:55:54;100207.97;;;10.86;100.00
43436;BME280;36399;51.444;-2.018;2023-04-28T03:58:20;100214.09;;;10.85;100.00
43436;BME280;36399;51.444;-2.018;2023-04-28T04:00:45;100211.47;;;10.85;100.00
43436;BME280;36399;51.444;-2.018;2023-04-28T04:03:11;100212.31;;;10.82;100.00
43436;BME280;36399;51.444;-2.018;2023-04-28T04:05:39;100209.69;;;10.84;100.00
43436;BME280;36399;51.444;-2.018;2023-04-28T04:08:05;100213.22;;;10.86;100.00
43436;BME280;36399;51.444;-2.018;2023-04-28T04:10:31;100213.22;;;10.86;100.00
43436;BME280;36399;51.444;-2.018;2023-04-28T04:12:56;100218.47;;;10.86;100.00
43436;BME280;36399;51.444;-2.018;2023-04-28T04:15:22;100222.00;;;10.88;100.00
43436;BME280;36399;51.444;-2.018;2023-04-28T04:17:48;100225.47;;;10.84;100.00
43436;BME280;36399;51.444;-2.018;2023-04-28T04:20:14;100215.78;;;10.78;100.00
43436;BME280;36399;51.444;-2.018;2023-04-28T04:22:40;100224.59;;;10.86;100.00
43436;BME280;36399;51.444;-2.018;2023-04-28T04:25:06;100229.78;;;10.77;100.00
43436;BME280;36399;51.444;-2.018;2023-04-28T04:27:32;100218.41;;;10.78;100.00
43436;BME280;36399;51.444;-2.018;2023-04-28T04:29:58;100230.63;;;10.74;100.00
43436;BME280;36399;51.444;-2.018;2023-04-28T04:32:24;100235.06;;;10.80;100.00
43436;BME280;36399;51.444;-2.018;2023-04-28T04:34:50;100230.63;;;10.74;100.00
43436;BME280;36399;51.444;-2.018;2023-04-28T04:37:16;100219.31;;;10.80;100.00
43436;BME280;36399;51.444;-2.018;2023-04-28T04:39:42;100219.28;;;10.79;100.00
43436;BME280;36399;51.444;-2.018;2023-04-28T04:42:08;100232.41;;;10.75;100.00
43436;BME280;36399;51.444;-2.018;2023-04-28T04:44:34;100232.41;;;10.75;100.00
43436;BME280;36399;51.444;-2.018;2023-04-28T04:47:00;100231.50;;;10.72;100.00
43436;BME280;36399;51.444;-2.018;2023-04-28T04:49:26;100235.03;;;10.75;100.00
43436;BME280;36399;51.444;-2.018;2023-04-28T04:51:52;100230.63;;;10.74;100.00
43436;BME280;36399;51.444;-2.018;2023-04-28T04:54:18;100235.91;;;10.74;100.00
43436;BME280;36399;51.444;-2.018;2023-04-28T04:56:43;100244.66;;;10.77;100.00
43436;BME280;36399;51.444;-2.018;2023-04-28T04:59:09;100238.53;;;10.76;100.00
43436;BME280;36399;51.444;-2.018;2023-04-28T05:01:35;100240.28;;;10.77;100.00
43436;BME280;36399;51.444;-2.018;2023-04-28T05:04:01;100237.63;;;10.72;100.00
43436;BME280;36399;51.444;-2.018;2023-04-28T05:06:28;100240.25;;;10.74;100.00
43436;BME280;36399;51.444;-2.018;2023-04-28T05:08:54;100238.56;;;10.79;100.00
43436;BME280;36399;51.444;-2.018;2023-04-28T05:11:21;100238.53;;;10.78;100.00
43436;BME280;36399;51.444;-2.018;2023-04-28T05:13:47;100244.66;;;10.77;100.00
43436;BME280;36399;51.444;-2.018;2023-04-28T05:16:13;100253.41;;;10.75;100.00
43436;BME280;36399;51.444;-2.018;2023-04-28T05:18:39;100255.19;;;10.80;100.00
43436;BME280;36399;51.444;-2.018;2023-04-28T05:21:05;100257.84;;;10.83;100.00
43436;BME280;36399;51.444;-2.018;2023-04-28T05:23:31;100263.06;;;10.81;100.00
43436;BME280;36399;51.444;-2.018;2023-04-28T05:25:57;100261.34;;;10.83;100.00
43436;BME280;36399;51.444;-2.018;2023-04-28T05:28:23;100263.97;;;10.85;100.00
43436;BME280;36399;51.444;-2.018;2023-04-28T05:30:49;100263.09;;;10.83;100.00
43436;BME280;36399;51.444;-2.018;2023-04-28T05:33:15;100268.34;;;10.84;100.00
43436;BME280;36399;51.444;-2.018;2023-04-28T05:35:41;100271.88;;;10.88;100.00
43436;BME280;36399;51.444;-2.018;2023-04-28T05:38:07;100273.66;;;10.89;100.00
43436;BME280;36399;51.444;-2.018;2023-04-28T05:40:33;100276.25;;;10.87;100.00
43436;BME280;36399;51.444;-2.018;2023-04-28T05:42:59;100285.00;;;10.85;100.00
43436;BME280;36399;51.444;-2.018;2023-04-28T05:45:25;100287.63;;;10.86;100.00
43436;BME280;36399;51.444;-2.018;2023-04-28T05:47:51;100295.53;;;10.88;100.00
43436;BME280;36399;51.444;-2.018;2023-04-28T05:50:17;100299.88;;;10.86;100.00
43436;BME280;36399;51.444;-2.018;2023-04-28T05:52:43;100297.22;;;10.83;100.00
43436;BME280;36399;51.444;-2.018;2023-04-28T05:55:10;100304.25;;;10.84;100.00
43436;BME280;36399;51.444;-2.018;2023-04-28T05:57:36;100290.28;;;10.91;100.00
43436;BME280;36399;51.444;-2.018;2023-04-28T06:00:03;100298.09;;;10.82;100.00
43436;BME280;36399;51.444;-2.018;2023-04-28T06:02:28;100307.69;;;10.80;100.00
43436;BME280;36399;51.444;-2.018;2023-04-28T06:04:54;100305.03;;;10.75;100.00
43436;BME280;36399;51.444;-2.018;2023-04-28T06:07:20;100319.09;;;10.80;100.00
43436;BME280;36399;51.444;-2.018;2023-04-28T06:09:46;100314.72;;;10.81;100.00
43436;BME280;36399;51.444;-2.018;2023-04-28T06:12:12;100319.13;;;10.83;100.00
43436;BME280;36399;51.444;-2.018;2023-04-28T06:14:38;100308.63;;;10.86;100.00
43436;BME280;36399;51.444;-2.018;2023-04-28T06:17:04;100309.53;;;10.90;100.00
43436;BME280;36399;51.444;-2.018;2023-04-28T06:19:30;100312.25;;;10.94;100.00
43436;BME280;36399;51.444;-2.018;2023-04-28T06:21:56;100311.28;;;10.88;100.00
43436;BME280;36399;51.444;-2.018;2023-04-28T06:24:22;100314.91;;;10.99;100.00
43436;BME280;36399;51.444;-2.018;2023-04-28T06:26:48;100321.00;;;10.96;100.00
43436;BME280;36399;51.444;-2.018;2023-04-28T06:29:14;100320.16;;;10.99;100.00
43436;BME280;36399;51.444;-2.018;2023-04-28T06:31:40;100326.28;;;10.98;100.00
43436;BME280;36399;51.444;-2.018;2023-04-28T06:34:06;100323.69;;;11.01;100.00
43436;BME280;36399;51.444;-2.018;2023-04-28T06:36:32;100314.97;;;11.05;100.00
43436;BME280;36399;51.444;-2.018;2023-04-28T06:38:58;100316.72;;;11.06;100.00
43436;BME280;36399;51.444;-2.018;2023-04-28T06:41:24;100327.19;;;11.03;100.00
43436;BME280;36399;51.444;-2.018;2023-04-28T06:43:50;100315.81;;;11.04;100.00
43436;BME280;36399;51.444;-2.018;2023-04-28T06:46:16;100314.00;;;10.94;100.00
43436;BME280;36399;51.444;-2.018;2023-04-28T06:48:42;100308.78;;;10.98;100.00
43436;BME280;36399;51.444;-2.018;2023-04-28T06:51:08;100321.03;;;10.98;100.00
43436;BME280;36399;51.444;-2.018;2023-04-28T06:53:34;100327.13;;;10.95;100.00
43436;BME280;36399;51.444;-2.018;2023-04-28T06:56:00;100315.75;;;10.93;100.00
43436;BME280;36399;51.444;-2.018;2023-04-28T06:58:27;100327.13;;;10.94;100.00
43436;BME280;36399;51.444;-2.018;2023-04-28T07:00:53;100323.69;;;11.04;100.00
43436;BME280;36399;51.444;-2.018;2023-04-28T07:03:19;100320.38;;;11.26;100.00
43436;BME280;36399;51.444;-2.018;2023-04-28T07:05:45;100317.75;;;11.26;100.00
43436;BME280;36399;51.444;-2.018;2023-04-28T07:08:11;100322.19;;;11.33;100.00
43436;BME280;36399;51.444;-2.018;2023-04-28T07:10:36;100316.25;;;11.60;100.00
43436;BME280;36399;51.444;-2.018;2023-04-28T07:13:02;100329.34;;;11.54;100.00
43436;BME280;36399;51.444;-2.018;2023-04-28T07:15:28;100315.38;;;11.63;100.00
43436;BME280;36399;51.444;-2.018;2023-04-28T07:17:54;100318.03;;;11.63;100.00
43436;BME280;36399;51.444;-2.018;2023-04-28T07:20:20;100318.03;;;11.67;100.00
43436;BME280;36399;51.444;-2.018;2023-04-28T07:22:46;100318.97;;;11.77;100.00
43436;BME280;36399;51.444;-2.018;2023-04-28T07:25:12;100321.66;;;11.83;100.00
43436;BME280;36399;51.444;-2.018;2023-04-28T07:27:38;100313.66;;;11.65;100.00
43436;BME280;36399;51.444;-2.018;2023-04-28T07:30:04;100319.78;;;11.64;100.00
43436;BME280;36399;51.444;-2.018;2023-04-28T07:32:31;100318.84;;;11.56;100.00
43436;BME280;36399;51.444;-2.018;2023-04-28T07:34:57;100331.16;;;11.60;100.00
43436;BME280;36399;51.444;-2.018;2023-04-28T07:37:23;100335.50;;;11.56;100.00
43436;BME280;36399;51.444;-2.018;2023-04-28T07:39:48;100334.56;;;11.47;100.00
43436;BME280;36399;51.444;-2.018;2023-04-28T07:42:14;100336.31;;;11.48;100.00
43436;BME280;36399;51.444;-2.018;2023-04-28T07:44:40;100336.31;;;11.45;100.00
43436;BME280;36399;51.444;-2.018;2023-04-28T07:47:07;100339.69;;;11.31;100.00
43436;BME280;36399;51.444;-2.018;2023-04-28T07:49:33;100332.00;;;11.54;100.00
43436;BME280;36399;51.444;-2.018;2023-04-28T07:51:59;100345.16;;;11.57;100.00
43436;BME280;36399;51.444;-2.018;2023-04-28T07:54:25;100349.53;;;11.57;100.00
43436;BME280;36399;51.444;-2.018;2023-04-28T07:56:51;100345.16;;;11.56;100.00
43436;BME280;36399;51.444;-2.018;2023-04-28T07:59:17;100358.31;;;11.60;100.00
43436;BME280;36399;51.444;-2.018;2023-04-28T08:01:43;100347.78;;;11.56;100.00
43436;BME280;36399;51.444;-2.018;2023-04-28T08:04:08;100356.47;;;11.47;100.00
43436;BME280;36399;51.444;-2.018;2023-04-28T08:06:37;100357.41;;;11.54;100.00
43436;BME280;36399;51.444;-2.018;2023-04-28T08:09:03;100351.31;;;11.59;100.00
43436;BME280;36399;51.444;-2.018;2023-04-28T08:11:31;100363.63;;;11.68;100.00
43436;BME280;36399;51.444;-2.018;2023-04-28T08:13:58;100359.38;;;11.82;100.00
43436;BME280;36399;51.444;-2.018;2023-04-28T08:16:27;100358.38;;;11.68;100.00
43436;BME280;36399;51.444;-2.018;2023-04-28T08:18:53;100360.25;;;11.87;100.00
43436;BME280;36399;51.444;-2.018;2023-04-28T08:21:19;100354.22;;;11.97;100.00
43436;BME280;36399;51.444;-2.018;2023-04-28T08:23:45;100356.09;;;12.30;100.00
43436;BME280;36399;51.444;-2.018;2023-04-28T08:26:11;100361.44;;;12.47;100.00
43436;BME280;36399;51.444;-2.018;2023-04-28T08:28:37;100355.34;;;12.62;100.00
43436;BME280;36399;51.444;-2.018;2023-04-28T08:31:04;100344.84;;;12.68;100.00
43436;BME280;36399;51.444;-2.018;2023-04-28T08:33:30;100345.72;;;12.75;100.00
43436;BME280;36399;51.444;-2.018;2023-04-28T08:35:56;100346.59;;;12.71;100.00
43436;BME280;36399;51.444;-2.018;2023-04-28T08:38:22;100345.78;;;13.01;100.00
43436;BME280;36399;51.444;-2.018;2023-04-28T08:40:50;100344.06;;;13.22;100.00
43436;BME280;36399;51.444;-2.018;2023-04-28T08:43:16;100337.91;;;13.22;100.00
43436;BME280;36399;51.444;-2.018;2023-04-28T08:45:43;100334.41;;;13.29;100.00
43436;BME280;36399;51.444;-2.018;2023-04-28T08:48:20;100329.09;;;13.50;100.00
43436;BME280;36399;51.444;-2.018;2023-04-28T08:50:51;100327.34;;;13.46;100.00
43436;BME280;36399;51.444;-2.018;2023-04-28T08:53:22;100324.72;;;13.45;100.00
43436;BME280;36399;51.444;-2.018;2023-04-28T08:55:54;100320.31;;;13.67;100.00
43436;BME280;36399;51.444;-2.018;2023-04-28T08:58:24;100319.34;;;13.90;100.00
43436;BME280;36399;51.444;-2.018;2023-04-28T09:00:52;100321.13;;;13.90;100.00
43436;BME280;36399;51.444;-2.018;2023-04-28T09:03:18;100316.69;;;14.07;100.00
43436;BME280;36399;51.444;-2.018;2023-04-28T09:05:44;100323.72;;;14.10;100.00
43436;BME280;36399;51.444;-2.018;2023-04-28T09:08:10;100304.38;;;13.94;100.00
43436;BME280;36399;51.444;-2.018;2023-04-28T09:10:37;100305.22;;;14.16;100.00
43436;BME280;36399;51.444;-2.018;2023-04-28T09:13:03;100310.53;;;14.07;100.00
43436;BME280;36399;51.444;-2.018;2023-04-28T09:15:32;100318.47;;;13.95;100.00
43436;BME280;36399;51.444;-2.018;2023-04-28T09:18:02;100315.81;;;13.95;100.00
43436;BME280;36399;51.444;-2.018;2023-04-28T09:20:30;100312.28;;;14.02;100.00
43436;BME280;36399;51.444;-2.018;2023-04-28T09:26:15;100311.47;;;13.83;100.00
43436;BME280;36399;51.444;-2.018;2023-04-28T09:28:40;100327.22;;;14.10;100.00
43436;BME280;36399;51.444;-2.018;2023-04-28T09:31:20;100320.19;;;14.00;100.00
43436;BME280;36399;51.444;-2.018;2023-04-28T09:33:57;100340.34;;;14.30;100.00
43436;BME280;36399;51.444;-2.018;2023-04-28T09:36:26;100328.94;;;14.25;100.00
43436;BME280;36399;51.444;-2.018;2023-04-28T09:38:56;100335.16;;;14.12;100.00
43436;BME280;36399;51.444;-2.018;2023-04-28T09:41:41;100337.66;;;14.39;100.00
43436;BME280;36399;51.444;-2.018;2023-04-28T09:46:40;100345.41;;;14.79;100.00
43436;BME280;36399;51.444;-2.018;2023-04-28T09:49:07;100345.38;;;14.85;100.00
43436;BME280;36399;51.444;-2.018;2023-04-28T09:51:34;100341.00;;;14.82;100.00
43436;BME280;36399;51.444;-2.018;2023-04-28T09:54:00;100346.13;;;15.01;100.00
43436;BME280;36399;51.444;-2.018;2023-04-28T09:56:31;100350.47;;;15.15;100.00
43436;BME280;36399;51.444;-2.018;2023-04-28T09:58:59;100338.91;;;15.26;100.00
43436;BME280;36399;51.444;-2.018;2023-04-28T10:01:27;100336.41;;;15.07;100.00
43436;BME280;36399;51.444;-2.018;2023-04-28T10:03:58;100343.34;;;15.24;100.00
43436;BME280;36399;51.444;-2.018;2023-04-28T10:06:26;100336.31;;;15.23;100.00
43436;BME280;36399;51.444;-2.018;2023-04-28T10:08:54;100334.47;;;15.31;100.00
43436;BME280;36399;51.444;-2.018;2023-04-28T10:11:20;100335.00;;;15.72;100.00
43436;BME280;36399;51.444;-2.018;2023-04-28T10:13:47;100331.97;;;16.07;100.00
43436;BME280;36399;51.444;-2.018;2023-04-28T10:16:14;100329.19;;;16.87;100.00
43436;BME280;36399;51.444;-2.018;2023-04-28T10:18:41;100317.09;;;17.25;100.00
43436;BME280;36399;51.444;-2.018;2023-04-28T10:21:07;100308.22;;;16.70;100.00
43436;BME280;36399;51.444;-2.018;2023-04-28T10:26:19;100326.16;;;16.49;100.00
43436;BME280;36399;51.444;-2.018;2023-04-28T10:28:47;100318.28;;;17.58;100.00
43436;BME280;36399;51.444;-2.018;2023-04-28T10:31:15;100306.16;;;17.94;100.00
43436;BME280;36399;51.444;-2.018;2023-04-28T10:33:42;100300.75;;;18.40;100.00
43436;BME280;36399;51.444;-2.018;2023-04-28T10:36:09;100298.53;;;19.01;100.00
43436;BME280;36399;51.444;-2.018;2023-04-28T10:39:07;100288.56;;;19.09;100.00
43436;BME280;36399;51.444;-2.018;2023-04-28T10:41:34;100297.78;;;19.65;100.00
43436;BME280;36399;51.444;-2.018;2023-04-28T10:44:00;100299.16;;;19.10;100.00
43436;BME280;36399;51.444;-2.018;2023-04-28T10:46:26;100300.06;;;18.74;100.00
43436;BME280;36399;51.444;-2.018;2023-04-28T10:48:53;100305.44;;;19.08;100.00
43436;BME280;36399;51.444;-2.018;2023-04-28T10:56:15;100288.19;;;18.88;100.00
43436;BME280;36399;51.444;-2.018;2023-04-28T10:58:46;100306.75;;;19.27;100.00
43436;BME280;36399;51.444;-2.018;2023-04-28T11:03:56;100302.78;;;19.08;100.00
43436;BME280;36399;51.444;-2.018;2023-04-28T11:06:30;100312.06;;;18.50;100.00
